Time;durP1;ratioP1;P1;durP2;ratioP2;P2;SDS_P1;SDS_P2;PMS_P1;PMS_P2;Temp;Humidity;BMP_temperature;BMP_pressure;BME280_temperature;BME280_humidity;BME280_pressure;Samples;Min_cycle;Max_cycle;Signal;HPM_P1;HPM_P2
2023/09/24 00:01:05;;;;;;;0.40;0.20;;;;;;;;;;4997352;28;20318;-88
2023/09/24 00:03:32;;;;;;;0.40;0.20;;;;;;;;;;4997418;28;20202;-86
2023/09/24 00:06:02;;;;;;;0.40;0.30;;;9.30;99.90;;;;;;4980765;28;20175;-86
2023/09/24 00:08:28;;;;;;;0.40;0.22;;;9.30;99.90;;;;;;4993201;28;20362;-86
2023/09/24 00:10:55;;;;;;;0.40;0.30;;;;;;;;;;4979890;28;20183;-85
2023/09/24 00:13:23;;;;;;;0.40;0.20;;;9.30;99.90;;;;;;4993925;28;20441;-85
2023/09/24 00:15:50;;;;;;;0.40;0.20;;;9.30;99.90;;;;;;4975436;28;20203;-85
2023/09/24 00:18:20;;;;;;;0.40;0.20;;;;;;;;;;4991097;28;20195;-84
2023/09/24 00:20:46;;;;;;;0.40;0.30;;;9.40;99.90;;;;;;4994724;28;20179;-84
2023/09/24 00:23:11;;;;;;;0.40;0.30;;;9.40;99.90;;;;;;4974161;28;20775;-84
2023/09/24 00:25:37;;;;;;;0.40;0.20;;;9.40;99.90;;;;;;4993663;28;20179;-86
2023/09/24 00:28:04;;;;;;;0.40;0.30;;;9.50;99.90;;;;;;4995785;28;20249;-87
2023/09/24 00:30:33;;;;;;;0.40;0.30;;;9.50;99.90;;;;;;4993929;28;20195;-87
2023/09/24 00:32:59;;;;;;;0.40;0.20;;;;;;;;;;4996431;28;20193;-87
2023/09/24 00:35:25;;;;;;;0.40;0.30;;;;;;;;;;4992216;28;20670;-84
2023/09/24 00:37:51;;;;;;;0.40;0.25;;;;;;;;;;4993424;28;20201;-83
2023/09/24 00:40:18;;;;;;;0.40;0.30;;;9.20;99.90;;;;;;4994460;28;20654;-85
2023/09/24 00:42:44;;;;;;;0.40;0.30;;;9.20;99.90;;;;;;4977411;28;20211;-85
2023/09/24 00:45:11;;;;;;;0.40;0.20;;;9.20;99.90;;;;;;4994556;28;20190;-86
2023/09/24 00:47:42;;;;;;;0.40;0.30;;;9.20;99.90;;;;;;4992779;28;20195;-85
2023/09/24 00:50:09;;;;;;;0.40;0.20;;;;;;;;;;4993388;28;20187;-85
2023/09/24 00:52:35;;;;;;;0.40;0.30;;;9.20;99.90;;;;;;4978397;28;20199;-84
2023/09/24 00:55:04;;;;;;;0.40;0.20;;;9.20;99.90;;;;;;4990529;28;20186;-84
2023/09/24 00:57:31;;;;;;;0.40;0.20;;;;;;;;;;4994898;28;20980;-84
2023/09/24 00:59:58;;;;;;;0.40;0.20;;;9.20;99.90;;;;;;4994541;28;20179;-84
2023/09/24 01:02:24;;;;;;;0.40;0.20;;;9.10;99.90;;;;;;4995435;28;20207;-84
2023/09/24 01:04:53;;;;;;;0.40;0.30;;;;;;;;;;4995105;28;20209;-85
2023/09/24 01:07:20;;;;;;;0.40;0.20;;;;;;;;;;4990361;28;20695;-82
2023/09/24 01:09:46;;;;;;;0.40;0.20;;;9.00;99.90;;;;;;4992030;28;20175;-83
2023/09/24 01:12:22;;;;;;;0.40;0.30;;;9.10;99.90;;;;;;4993876;28;20187;-83
2023/09/24 01:14:49;;;;;;;0.40;0.30;;;;;;;;;;4995172;28;20179;-86
2023/09/24 01:17:18;;;;;;;0.40;0.30;;;9.20;99.90;;;;;;4998564;28;20195;-87
2023/09/24 01:19:44;;;;;;;0.40;0.20;;;9.00;99.90;;;;;;5000413;28;20183;-87
2023/09/24 01:22:09;;;;;;;0.40;0.20;;;9.00;99.90;;;;;;4980672;28;20247;-87
2023/09/24 01:24:35;;;;;;;0.37;0.20;;;;;;;;;;4998336;28;20203;-87
2023/09/24 01:27:01;;;;;;;0.40;0.20;;;8.90;99.90;;;;;;4999984;28;20290;-88
2023/09/24 01:29:27;;;;;;;0.40;0.20;;;;;;;;;;4996542;28;20204;-89
2023/09/24 01:31:55;;;;;;;0.40;0.20;;;;;;;;;;4998182;28;20227;-87
2023/09/24 01:34:22;;;;;;;0.40;0.20;;;;;;;;;;4997051;28;20446;-87
2023/09/24 01:36:53;;;;;;;0.40;0.20;;;;;;;;;;4996972;28;20211;-88
2023/09/24 01:39:29;;;;;;;0.40;0.20;;;;;;;;;;4999793;28;20223;-88
2023/09/24 01:41:55;;;;;;;0.40;0.32;;;;;;;;;;4979124;28;20187;-83
2023/09/24 01:44:21;;;;;;;0.40;0.20;;;;;;;;;;4993956;28;20207;-84
2023/09/24 01:46:48;;;;;;;0.40;0.20;;;;;;;;;;4995103;28;20258;-84
2023/09/24 01:49:16;;;;;;;0.40;0.20;;;8.80;99.90;;;;;;4991753;28;20477;-82
2023/09/24 01:51:44;;;;;;;0.40;0.20;;;;;;;;;;4994985;28;20254;-83
2023/09/24 01:54:10;;;;;;;0.40;0.22;;;;;;;;;;4993042;28;20329;-86
2023/09/24 01:56:36;;;;;;;0.38;0.20;;;8.50;99.90;;;;;;4996106;28;20199;-84
2023/09/24 01:59:06;;;;;;;0.40;0.30;;;;;;;;;;4994936;28;20206;-84
2023/09/24 02:01:33;;;;;;;0.40;0.30;;;8.40;99.90;;;;;;4994577;28;20201;-83
2023/09/24 02:03:59;;;;;;;0.40;0.20;;;8.40;99.90;;;;;;4998014;28;20211;-84
2023/09/24 02:06:25;;;;;;;0.40;0.20;;;8.40;99.90;;;;;;4994683;28;20191;-84
2023/09/24 02:08:51;;;;;;;0.40;0.30;;;8.50;99.90;;;;;;4984734;28;20536;-84
2023/09/24 02:11:18;;;;;;;0.40;0.20;;;8.40;99.90;;;;;;4995932;28;20200;-83
2023/09/24 02:13:43;;;;;;;0.38;0.20;;;8.40;99.90;;;;;;4994638;28;20197;-84
2023/09/24 02:16:09;;;;;;;0.40;0.20;;;;;;;;;;4996139;28;20222;-84
2023/09/24 02:18:36;;;;;;;0.40;0.30;;;;;;;;;;4979852;28;20202;-83
2023/09/24 02:21:01;;;;;;;0.40;0.20;;;8.30;99.90;;;;;;4995254;28;20191;-84
2023/09/24 02:23:27;;;;;;;2.97;1.20;;;;;;;;;;4994722;28;20199;-85
2023/09/24 02:25:55;;;;;;;0.40;0.20;;;;;;;;;;4977009;28;20287;-85
2023/09/24 02:28:24;;;;;;;0.40;0.30;;;8.30;99.90;;;;;;4996854;28;20795;-84
2023/09/24 02:30:50;;;;;;;0.40;0.30;;;;;;;;;;4978866;28;20190;-85
2023/09/24 02:33:16;;;;;;;0.40;0.20;;;;;;;;;;5001649;28;20203;-85
2023/09/24 02:35:42;;;;;;;0.40;0.30;;;;;;;;;;5003718;28;20175;-87
2023/09/24 02:38:09;;;;;;;0.40;0.20;;;;;;;;;;4982745;28;20434;-86
2023/09/24 02:40:35;;;;;;;0.40;0.20;;;;;;;;;;4996801;28;20438;-86
2023/09/24 02:43:03;;;;;;;0.40;0.30;;;8.20;99.90;;;;;;4980888;28;20605;-85
2023/09/24 02:45:29;;;;;;;0.40;0.20;;;8.20;99.90;;;;;;4998771;28;20895;-86
2023/09/24 02:47:56;;;;;;;0.40;0.30;;;8.10;99.90;;;;;;4997148;28;20258;-85
2023/09/24 02:50:27;;;;;;;0.40;0.20;;;8.10;99.90;;;;;;4981480;28;20629;-87
2023/09/24 02:52:58;;;;;;;0.40;0.20;;;8.10;99.90;;;;;;4982335;28;20206;-87
2023/09/24 02:55:25;;;;;;;0.40;0.20;;;8.10;99.90;;;;;;4989938;28;20535;-85
2023/09/24 02:57:51;;;;;;;0.40;0.20;;;8.00;99.90;;;;;;4993656;28;20243;-86
2023/09/24 03:00:19;;;;;;;0.40;0.30;;;8.00;99.90;;;;;;4994182;28;20187;-85
2023/09/24 03:02:45;;;;;;;0.35;0.20;;;8.00;99.90;;;;;;4994548;28;20199;-85
2023/09/24 03:05:12;;;;;;;0.40;0.20;;;8.00;99.90;;;;;;4994967;28;20210;-85
2023/09/24 03:07:40;;;;;;;0.40;0.30;;;8.00;99.90;;;;;;4996324;28;20252;-84
2023/09/24 03:10:10;;;;;;;0.40;0.20;;;8.00;99.90;;;;;;4996862;28;20278;-87
2023/09/24 03:12:36;;;;;;;0.43;0.35;;;7.80;99.90;;;;;;4996849;28;20195;-85
2023/09/24 03:15:03;;;;;;;0.30;0.20;;;7.80;99.90;;;;;;4995862;28;20223;-86
2023/09/24 03:17:28;;;;;;;0.40;0.20;;;7.80;99.90;;;;;;4995568;28;20217;-85
2023/09/24 03:19:54;;;;;;;0.30;0.20;;;;;;;;;;4979969;28;20463;-85
2023/09/24 03:22:24;;;;;;;0.40;0.20;;;7.80;99.90;;;;;;4976372;28;20606;-85
2023/09/24 03:24:50;;;;;;;0.40;0.30;;;7.80;99.90;;;;;;4978982;28;21130;-85
2023/09/24 03:27:16;;;;;;;0.30;0.20;;;;;;;;;;4994750;28;20297;-86
2023/09/24 03:29:46;;;;;;;0.40;0.30;;;;;;;;;;4978171;28;20180;-87
2023/09/24 03:32:11;;;;;;;0.30;0.20;;;7.80;99.90;;;;;;5001436;28;20454;-89
2023/09/24 03:34:38;;;;;;;0.37;0.20;;;;;;;;;;5002534;28;20245;-89
2023/09/24 03:37:09;;;;;;;0.38;0.28;;;;;;;;;;5002872;28;20226;-89
2023/09/24 03:39:35;;;;;;;0.30;0.20;;;7.90;99.90;;;;;;5014402;22;20250;-84
2023/09/24 03:42:01;;;;;;;0.35;0.20;;;7.90;99.90;;;;;;5007794;28;20178;-82
2023/09/24 03:44:27;;;;;;;0.40;0.20;;;;;;;;;;4986495;28;20222;-81
2023/09/24 03:46:52;;;;;;;0.40;0.30;;;7.90;99.90;;;;;;5001928;28;20247;-83
2023/09/24 03:49:18;;;;;;;0.40;0.20;;;;;;;;;;4987722;28;20553;-81
2023/09/24 03:51:43;;;;;;;0.30;0.20;;;7.90;99.90;;;;;;5002416;28;20604;-83
2023/09/24 03:54:09;;;;;;;0.40;0.20;;;7.90;99.90;;;;;;5003006;28;20467;-82
2023/09/24 03:56:35;;;;;;;0.40;0.20;;;;;;;;;;4987492;28;20206;-84
2023/09/24 03:59:00;;;;;;;0.40;0.30;;;7.80;99.90;;;;;;4999881;28;20191;-84
2023/09/24 04:01:26;;;;;;;0.40;0.20;;;7.80;99.90;;;;;;4987835;28;20464;-85
2023/09/24 04:03:51;;;;;;;0.30;0.20;;;7.90;99.90;;;;;;4987488;28;20257;-80
2023/09/24 04:06:17;;;;;;;0.30;0.20;;;;;;;;;;5000063;28;20206;-83
2023/09/24 04:08:43;;;;;;;0.38;0.20;;;7.70;99.90;;;;;;5002788;28;20694;-82
2023/09/24 04:11:15;;;;;;;0.50;0.50;;;7.70;99.90;;;;;;5002155;28;20170;-83
2023/09/24 04:13:41;;;;;;;0.40;0.20;;;7.70;99.90;;;;;;5001226;28;20201;-84
2023/09/24 04:16:13;;;;;;;0.40;0.20;;;7.60;99.90;;;;;;4989386;28;20214;-85
2023/09/24 04:18:41;;;;;;;0.30;0.20;;;7.60;99.90;;;;;;4988581;28;20434;-82
2023/09/24 04:21:33;;;;;;;0.30;0.20;;;7.60;99.90;;;;;;4989033;28;20201;-82
2023/09/24 04:23:58;;;;;;;0.30;0.20;;;7.60;99.90;;;;;;4982774;28;20225;-84
2023/09/24 04:26:25;;;;;;;0.40;0.20;;;7.70;99.90;;;;;;5000795;28;20218;-81
2023/09/24 04:28:51;;;;;;;0.40;0.30;;;7.70;99.90;;;;;;4986866;28;20206;-85
2023/09/24 04:31:17;;;;;;;0.30;0.20;;;7.60;99.90;;;;;;5004476;28;20186;-83
2023/09/24 04:33:44;;;;;;;0.40;0.20;;;7.50;99.90;;;;;;4988099;28;20241;-80
2023/09/24 04:36:10;;;;;;;0.40;0.20;;;7.50;99.90;;;;;;4992043;28;20202;-76
2023/09/24 04:38:36;;;;;;;0.40;0.20;;;7.50;99.90;;;;;;4994846;28;20209;-80
2023/09/24 04:41:03;;;;;;;0.40;0.20;;;7.50;99.90;;;;;;5000805;28;20463;-86
2023/09/24 04:43:29;;;;;;;0.40;0.20;;;7.60;99.90;;;;;;4990287;28;20219;-81
2023/09/24 04:45:54;;;;;;;0.30;0.20;;;7.80;99.90;;;;;;5000103;28;20631;-83
2023/09/24 04:48:20;;;;;;;0.30;0.20;;;7.70;99.90;;;;;;4987288;28;20356;-79
2023/09/24 04:50:45;;;;;;;0.30;0.20;;;7.60;99.90;;;;;;4984905;28;20191;-79
2023/09/24 04:53:11;;;;;;;0.30;0.20;;;7.60;99.90;;;;;;5000666;28;20186;-82
2023/09/24 04:55:36;;;;;;;0.40;0.20;;;7.60;99.90;;;;;;5000114;28;20214;-83
2023/09/24 04:58:02;;;;;;;0.30;0.20;;;7.50;99.90;;;;;;4997075;28;20210;-83
2023/09/24 05:00:28;;;;;;;0.40;0.20;;;7.50;99.90;;;;;;5015626;28;20198;-77
2023/09/24 05:02:54;;;;;;;0.40;0.30;;;7.40;99.90;;;;;;5008182;28;20481;-79
2023/09/24 05:05:19;;;;;;;0.40;0.20;;;7.50;99.90;;;;;;5006674;28;21006;-82
2023/09/24 05:07:45;;;;;;;0.40;0.30;;;7.50;99.90;;;;;;4988933;28;20190;-81
2023/09/24 05:10:11;;;;;;;0.40;0.30;;;7.50;99.90;;;;;;4983184;28;20230;-82
2023/09/24 05:12:36;;;;;;;0.30;0.20;;;7.50;99.90;;;;;;4998922;28;20187;-83
2023/09/24 05:15:03;;;;;;;0.30;0.20;;;7.40;99.90;;;;;;4989662;28;20468;-85
2023/09/24 05:17:32;;;;;;;0.30;0.20;;;7.30;99.90;;;;;;5002545;28;20288;-83
2023/09/24 05:19:58;;;;;;;0.30;0.20;;;7.40;99.90;;;;;;5004589;28;20198;-82
2023/09/24 05:22:27;;;;;;;0.40;0.30;;;;;;;;;;4984554;28;20191;-81
2023/09/24 05:24:53;;;;;;;0.30;0.20;;;7.40;99.90;;;;;;4987721;28;20499;-84
2023/09/24 05:27:19;;;;;;;0.30;0.20;;;;;;;;;;5003104;28;20194;-84
2023/09/24 05:29:48;;;;;;;0.30;0.20;;;7.60;99.90;;;;;;4987197;28;20660;-83
2023/09/24 05:32:14;;;;;;;0.40;0.22;;;7.70;99.90;;;;;;5005325;28;20217;-84
2023/09/24 05:34:39;;;;;;;0.30;0.20;;;7.80;99.90;;;;;;4991684;28;20207;-87
2023/09/24 05:37:06;;;;;;;0.30;0.20;;;8.40;99.90;;;;;;4992100;28;20216;-85
2023/09/24 05:39:33;;;;;;;0.32;0.22;;;8.90;99.90;;;;;;4994194;28;20224;-84
2023/09/24 05:41:58;;;;;;;0.40;0.20;;;9.50;99.90;;;;;;4994724;28;20198;-85
2023/09/24 05:44:24;;;;;;;0.30;0.30;;;;;;;;;;5012855;28;20217;-81
2023/09/24 05:46:50;;;;;;;0.40;0.20;;;10.60;99.90;;;;;;5001105;28;20200;-83
2023/09/24 05:49:16;;;;;;;0.40;0.20;;;11.20;99.90;;;;;;4995141;28;20230;-82
2023/09/24 05:51:42;;;;;;;0.40;0.20;;;;;;;;;;5007304;28;20704;-85
2023/09/24 05:54:10;;;;;;;0.40;0.30;;;13.10;99.90;;;;;;4990486;28;20440;-86
2023/09/24 05:56:36;;;;;;;0.40;0.20;;;13.10;99.90;;;;;;4994953;28;20726;-84
2023/09/24 05:59:02;;;;;;;0.40;0.20;;;14.00;99.90;;;;;;4989867;28;20189;-82
2023/09/24 06:01:28;;;;;;;0.40;0.20;;;15.40;99.90;;;;;;4991963;28;20441;-85
2023/09/24 06:03:53;;;;;;;0.40;0.30;;;16.20;99.90;;;;;;5005593;28;20227;-86
2023/09/24 06:06:19;;;;;;;0.40;0.20;;;17.20;99.90;;;;;;4991256;28;20198;-85
2023/09/24 06:08:45;;;;;;;0.40;0.20;;;18.20;99.90;;;;;;5007670;28;20684;-88
2023/09/24 06:11:10;;;;;;;0.40;0.30;;;19.30;99.90;;;;;;5007677;28;20209;-84
2023/09/24 06:13:36;;;;;;;0.40;0.20;;;20.10;99.90;;;;;;5007546;28;20236;-87
2023/09/24 06:16:02;;;;;;;0.40;0.20;;;20.50;99.90;;;;;;4993029;28;20210;-85
2023/09/24 06:18:28;;;;;;;0.40;0.30;;;20.60;99.90;;;;;;4990713;28;20214;-81
2023/09/24 06:20:54;;;;;;;0.40;0.30;;;20.60;99.90;;;;;;4990505;28;20897;-84
2023/09/24 06:23:20;;;;;;;0.40;0.30;;;21.00;99.90;;;;;;4995494;28;20241;-83
2023/09/24 06:25:53;;;;;;;0.40;0.20;;;21.70;99.90;;;;;;5009934;28;20560;-80
2023/09/24 06:28:19;;;;;;;0.40;0.30;;;22.40;99.90;;;;;;4998613;28;20205;-87
2023/09/24 06:30:44;;;;;;;0.40;0.20;;;21.60;99.90;;;;;;4994762;28;20449;-88
2023/09/24 06:33:10;;;;;;;0.40;0.30;;;21.70;99.90;;;;;;5000686;28;20179;-83
2023/09/24 06:35:37;;;;;;;0.40;0.30;;;22.80;99.90;;;;;;4990201;28;20199;-83
2023/09/24 06:38:03;;;;;;;0.40;0.30;;;23.50;98.70;;;;;;5007066;28;20564;-83
2023/09/24 06:40:29;;;;;;;0.40;0.30;;;24.20;97.00;;;;;;5002334;28;20457;-81
2023/09/24 06:42:55;;;;;;;0.50;0.30;;;25.50;95.80;;;;;;4985675;28;20214;-83
2023/09/24 06:45:21;;;;;;;0.43;0.30;;;26.70;92.30;;;;;;4987965;28;20479;-83
2023/09/24 06:47:48;;;;;;;0.40;0.30;;;27.50;81.70;;;;;;4988617;28;20226;-85
2023/09/24 06:50:14;;;;;;;0.40;0.30;;;27.40;81.60;;;;;;5002233;28;20444;-80
2023/09/24 06:52:40;;;;;;;0.40;0.30;;;27.20;80.10;;;;;;4989230;28;20447;-82
2023/09/24 06:55:09;;;;;;;0.40;0.30;;;26.70;80.20;;;;;;5015133;28;20947;-78
2023/09/24 06:57:36;;;;;;;0.43;0.30;;;26.70;81.00;;;;;;4990973;28;20210;-83
2023/09/24 07:00:08;;;;;;;0.53;0.53;;;25.70;80.80;;;;;;5001828;28;20507;-82
2023/09/24 07:02:33;;;;;;;0.40;0.30;;;25.40;85.10;;;;;;4987748;28;21088;-81
2023/09/24 07:04:59;;;;;;;0.40;0.30;;;24.90;83.30;;;;;;5011958;28;20465;-82
2023/09/24 07:07:25;;;;;;;0.40;0.30;;;24.80;86.60;;;;;;5008923;28;20181;-81
2023/09/24 07:09:50;;;;;;;0.40;0.27;;;25.10;85.70;;;;;;4994864;28;20273;-83
2023/09/24 07:12:16;;;;;;;0.50;0.30;;;25.80;85.20;;;;;;5004975;28;21012;-84
2023/09/24 07:14:42;;;;;;;0.40;0.30;;;27.70;84.40;;;;;;4988463;28;20871;-84
2023/09/24 07:17:08;;;;;;;0.40;0.30;;;26.00;82.10;;;;;;5003678;28;20184;-86
2023/09/24 07:19:34;;;;;;;0.40;0.30;;;26.50;80.10;;;;;;5005991;28;20456;-86
2023/09/24 07:21:59;;;;;;;0.40;0.30;;;26.80;80.20;;;;;;5019196;28;20194;-82
2023/09/24 07:24:25;;;;;;;0.40;0.40;;;26.30;75.50;;;;;;5000525;28;20211;-86
2023/09/24 07:26:51;;;;;;;0.77;0.60;;;26.30;76.20;;;;;;4992471;28;20201;-86
2023/09/24 07:29:17;;;;;;;0.40;0.33;;;;;;;;;;4988682;28;20192;-83
2023/09/24 07:31:43;;;;;;;0.40;0.30;;;;;;;;;;4993853;28;20468;-83
2023/09/24 07:34:10;;;;;;;0.40;0.20;;;26.50;80.50;;;;;;4987524;28;20844;-82
2023/09/24 07:36:36;;;;;;;0.40;0.30;;;26.60;81.10;;;;;;5005709;28;20571;-82
2023/09/24 07:39:01;;;;;;;0.40;0.30;;;27.60;78.80;;;;;;4987066;28;20540;-87
2023/09/24 07:41:27;;;;;;;0.50;0.40;;;28.40;78.20;;;;;;5004895;28;20350;-82
2023/09/24 07:43:53;;;;;;;0.50;0.40;;;28.80;71.60;;;;;;4994445;28;20216;-80
2023/09/24 07:46:19;;;;;;;0.70;0.40;;;29.50;72.70;;;;;;5011627;28;20265;-84
2023/09/24 07:48:49;;;;;;;0.60;0.60;;;29.60;75.30;;;;;;4990418;28;20440;-83
2023/09/24 07:51:19;;;;;;;0.50;0.50;;;;;;;;;;5006966;28;20217;-86
2023/09/24 07:53:45;;;;;;;0.40;0.30;;;26.70;73.20;;;;;;5003018;28;20443;-82
2023/09/24 07:56:11;;;;;;;0.40;0.30;;;26.00;75.10;;;;;;4989965;28;20461;-84
2023/09/24 07:58:38;;;;;;;0.40;0.30;;;27.70;78.60;;;;;;5007545;28;20492;-84
2023/09/24 08:01:08;;;;;;;0.40;0.30;;;28.00;76.60;;;;;;5007427;28;20542;-82
2023/09/24 08:03:34;;;;;;;1.70;1.23;;;27.70;73.00;;;;;;5000233;28;20474;-88
2023/09/24 08:06:01;;;;;;;1.30;1.20;;;28.40;71.80;;;;;;5003809;28;20482;-85
2023/09/24 08:08:27;;;;;;;0.57;0.57;;;;;;;;;;4991820;28;20486;-86
2023/09/24 08:10:53;;;;;;;0.50;0.50;;;28.50;70.30;;;;;;4983275;28;20448;-83
2023/09/24 08:13:19;;;;;;;0.50;0.50;;;;;;;;;;4985603;28;20450;-85
2023/09/24 08:15:45;;;;;;;0.53;0.53;;;29.30;72.20;;;;;;5002769;28;20520;-83
2023/09/24 08:18:12;;;;;;;0.70;0.70;;;;;;;;;;4986643;28;20449;-82
2023/09/24 08:20:39;;;;;;;1.13;0.93;;;29.50;68.70;;;;;;4988162;28;20449;-84
2023/09/24 08:23:04;;;;;;;0.80;0.80;;;29.50;69.90;;;;;;4996207;28;20486;-82
2023/09/24 08:25:31;;;;;;;0.60;0.60;;;;;;;;;;4986070;28;20497;-84
2023/09/24 08:27:57;;;;;;;0.50;0.50;;;27.90;70.60;;;;;;4987214;28;20223;-87
2023/09/24 08:30:23;;;;;;;0.80;0.80;;;;;;;;;;4990365;28;20429;-84
2023/09/24 08:32:49;;;;;;;0.50;0.50;;;27.10;74.50;;;;;;4984054;28;20442;-85
2023/09/24 08:35:14;;;;;;;0.60;0.60;;;27.80;74.70;;;;;;4986730;28;20472;-84
2023/09/24 08:37:40;;;;;;;0.70;0.70;;;28.00;74.10;;;;;;5003227;28;20229;-83
2023/09/24 08:40:12;;;;;;;0.50;0.50;;;27.70;72.70;;;;;;4999548;28;20201;-87
2023/09/24 08:42:38;;;;;;;2.80;1.37;;;28.80;76.50;;;;;;4980661;28;20287;-85
2023/09/24 08:45:10;;;;;;;0.57;0.57;;;28.20;71.10;;;;;;4984894;28;20755;-85
2023/09/24 08:47:38;;;;;;;0.70;0.70;;;28.30;72.30;;;;;;4983703;28;20244;-85
2023/09/24 08:50:04;;;;;;;0.60;0.60;;;28.50;72.00;;;;;;4982743;28;20464;-82
2023/09/24 08:52:33;;;;;;;1.20;1.10;;;27.70;71.50;;;;;;4982137;28;20465;-85
2023/09/24 08:54:59;;;;;;;0.70;0.70;;;27.30;76.70;;;;;;4981200;28;20466;-84
2023/09/24 08:57:25;;;;;;;0.60;0.60;;;28.10;75.00;;;;;;5000056;28;20999;-84
2023/09/24 08:59:51;;;;;;;0.80;0.80;;;28.60;75.80;;;;;;5000696;28;21180;-84
2023/09/24 09:02:17;;;;;;;0.50;0.50;;;27.70;76.10;;;;;;5010036;28;20192;-83
2023/09/24 09:04:50;;;;;;;1.03;1.03;;;28.30;72.30;;;;;;4986834;28;20768;-83
2023/09/24 09:07:16;;;;;;;0.50;0.50;;;28.20;73.10;;;;;;5000560;28;20229;-87
2023/09/24 09:09:53;;;;;;;0.60;0.60;;;27.30;74.90;;;;;;4990174;28;21419;-85
2023/09/24 09:12:21;;;;;;;1.17;1.10;;;26.20;78.50;;;;;;4989787;28;20455;-85
2023/09/24 09:14:46;;;;;;;0.50;0.50;;;26.90;81.60;;;;;;4995853;28;20468;-83
2023/09/24 09:17:12;;;;;;;0.50;0.47;;;;;;;;;;5008932;28;20483;-84
2023/09/24 09:19:48;;;;;;;0.83;0.80;;;25.60;81.30;;;;;;5006483;28;20193;-84
2023/09/24 09:22:24;;;;;;;0.60;0.40;;;24.80;86.00;;;;;;5006106;28;20447;-83
2023/09/24 09:25:10;;;;;;;0.40;0.30;;;26.10;80.50;;;;;;4986014;28;21092;-83
2023/09/24 09:27:37;;;;;;;0.47;0.30;;;27.50;75.50;;;;;;4982724;28;20456;-83
2023/09/24 09:30:18;;;;;;;0.50;0.50;;;28.20;74.70;;;;;;4984021;28;20452;-82
2023/09/24 09:32:45;;;;;;;0.60;0.60;;;28.90;66.20;;;;;;4995992;28;20452;-83
2023/09/24 09:35:12;;;;;;;0.80;0.80;;;28.80;66.90;;;;;;5001608;28;20470;-85
2023/09/24 09:37:42;;;;;;;0.60;0.60;;;29.90;64.60;;;;;;4987367;28;20462;-84
2023/09/24 09:40:09;;;;;;;0.60;0.60;;;27.50;62.70;;;;;;5001629;28;20926;-83
2023/09/24 09:42:36;;;;;;;0.60;0.60;;;27.50;63.30;;;;;;4987621;28;20459;-84
2023/09/24 09:45:07;;;;;;;0.50;0.50;;;26.90;61.20;;;;;;4989171;28;20472;-82
2023/09/24 09:47:34;;;;;;;0.60;0.60;;;26.30;62.00;;;;;;4989491;28;20502;-82
2023/09/24 09:50:00;;;;;;;0.50;0.50;;;26.60;63.30;;;;;;4988130;28;20468;-82
2023/09/24 09:52:32;;;;;;;0.50;0.40;;;28.00;66.40;;;;;;4991150;28;20471;-83
2023/09/24 09:55:01;;;;;;;0.47;0.43;;;26.40;66.40;;;;;;5003418;28;20467;-83
2023/09/24 09:57:31;;;;;;;0.40;0.30;;;26.10;67.60;;;;;;4975680;28;20480;-83
2023/09/24 09:59:57;;;;;;;0.40;0.30;;;25.00;70.20;;;;;;4981280;28;20458;-81
2023/09/24 10:02:23;;;;;;;0.40;0.20;;;23.70;72.20;;;;;;4985808;28;21350;-79
2023/09/24 10:04:49;;;;;;;0.40;0.30;;;22.00;76.80;;;;;;4999595;28;20575;-83
2023/09/24 10:07:15;;;;;;;0.40;0.27;;;;;;;;;;5002349;28;20587;-84
2023/09/24 10:09:41;;;;;;;0.40;0.30;;;;;;;;;;4998503;28;20454;-82
2023/09/24 10:12:07;;;;;;;0.40;0.30;;;20.90;85.80;;;;;;4982295;28;20437;-85
2023/09/24 10:14:42;;;;;;;0.40;0.23;;;20.30;86.00;;;;;;5003548;28;20472;-83
2023/09/24 10:17:23;;;;;;;0.40;0.30;;;20.20;89.00;;;;;;5006425;28;20507;-82
2023/09/24 10:20:08;;;;;;;0.40;0.30;;;20.00;90.40;;;;;;4988954;28;20523;-83
2023/09/24 10:22:35;;;;;;;0.40;0.30;;;19.80;90.90;;;;;;4987163;28;20449;-82
2023/09/24 10:25:34;;;;;;;0.40;0.27;;;19.60;90.00;;;;;;5000191;28;20472;-79
2023/09/24 10:28:04;;;;;;;0.40;0.20;;;19.60;90.20;;;;;;4997042;28;20549;-84
2023/09/24 10:31:04;;;;;;;0.40;0.30;;;19.50;90.50;;;;;;5005408;28;20441;-84
2023/09/24 10:33:58;;;;;;;0.40;0.30;;;19.60;90.90;;;;;;4991966;28;20438;-82
2023/09/24 10:36:30;;;;;;;0.50;0.40;;;19.70;84.40;;;;;;4980643;28;20468;-81
2023/09/24 10:39:13;;;;;;;0.40;0.30;;;19.50;81.80;;;;;;5000212;28;20963;-83
2023/09/24 10:42:18;;;;;;;0.40;0.20;;;19.50;87.70;;;;;;5007952;28;21499;-81
2023/09/24 10:44:44;;;;;;;0.40;0.20;;;19.60;87.30;;;;;;4905016;29;20485;-83
2023/09/24 10:47:25;;;;;;;0.40;0.20;;;19.50;84.80;;;;;;4921533;29;20460;-82
2023/09/24 10:50:00;;;;;;;0.40;0.20;;;19.60;86.10;;;;;;4965206;28;20213;-82
2023/09/24 10:52:26;;;;;;;0.40;0.20;;;;;;;;;;5001390;28;20456;-82
2023/09/24 10:54:51;;;;;;;0.40;0.30;;;19.50;82.30;;;;;;4988235;28;20466;-84
2023/09/24 10:57:24;;;;;;;0.40;0.30;;;19.50;83.20;;;;;;5000825;28;20449;-82
2023/09/24 10:59:50;;;;;;;0.40;0.30;;;19.60;86.00;;;;;;4984927;28;20183;-79
2023/09/24 11:02:19;;;;;;;0.40;0.30;;;19.90;86.90;;;;;;4999837;28;20541;-80
2023/09/24 11:04:45;;;;;;;0.40;0.30;;;19.90;87.70;;;;;;5000842;28;20472;-84
2023/09/24 11:07:12;;;;;;;0.40;0.30;;;20.00;85.60;;;;;;4982252;28;20471;-80
2023/09/24 11:09:37;;;;;;;0.40;0.40;;;19.90;85.50;;;;;;5007216;28;20186;-84
2023/09/24 11:12:09;;;;;;;0.40;0.30;;;19.90;89.20;;;;;;5011259;28;20448;-82
2023/09/24 11:14:35;;;;;;;1.00;0.60;;;19.90;90.00;;;;;;5002017;28;20464;-81
2023/09/24 11:17:01;;;;;;;0.40;0.30;;;20.10;89.80;;;;;;4989753;28;20468;-82
2023/09/24 11:19:44;;;;;;;0.40;0.30;;;20.10;86.00;;;;;;4985136;28;20571;-83
2023/09/24 11:22:16;;;;;;;0.40;0.30;;;20.00;88.80;;;;;;4990680;28;20565;-79
2023/09/24 11:24:42;;;;;;;0.40;0.30;;;19.80;90.50;;;;;;4995468;28;20477;-86
2023/09/24 11:27:08;;;;;;;0.40;0.30;;;;;;;;;;5002023;28;20455;-81
2023/09/24 11:29:34;;;;;;;0.40;0.40;;;;;;;;;;4985620;28;20548;-81
2023/09/24 11:32:00;;;;;;;0.40;0.27;;;;;;;;;;4984184;28;20554;-82
2023/09/24 11:34:28;;;;;;;0.40;0.20;;;20.00;89.10;;;;;;4995600;28;20460;-86
2023/09/24 11:36:55;;;;;;;0.40;0.20;;;20.00;88.60;;;;;;5000723;28;21126;-84
2023/09/24 11:39:21;;;;;;;0.40;0.30;;;;;;;;;;4987307;28;20449;-82
2023/09/24 11:41:47;;;;;;;0.40;0.27;;;19.90;87.20;;;;;;4990936;28;20564;-86
2023/09/24 11:44:13;;;;;;;0.77;0.77;;;;;;;;;;4983538;28;20536;-86
2023/09/24 11:46:40;;;;;;;0.40;0.30;;;20.10;83.60;;;;;;4979053;28;20210;-82
2023/09/24 11:49:06;;;;;;;0.40;0.30;;;;;;;;;;4998245;28;20453;-80
2023/09/24 11:51:32;;;;;;;0.40;0.30;;;20.20;81.40;;;;;;4987779;28;21238;-84
2023/09/24 11:53:59;;;;;;;0.40;0.27;;;20.10;80.50;;;;;;4988438;28;20525;-81
2023/09/24 11:56:25;;;;;;;0.40;0.20;;;20.10;84.70;;;;;;5004559;28;20495;-82
2023/09/24 11:58:51;;;;;;;0.40;0.30;;;;;;;;;;4986361;28;20504;-84
2023/09/24 12:01:17;;;;;;;0.40;0.23;;;20.40;82.30;;;;;;4980896;28;20441;-83
2023/09/24 12:03:45;;;;;;;0.40;0.30;;;20.50;84.50;;;;;;5001570;28;20473;-81
2023/09/24 12:06:11;;;;;;;0.40;0.30;;;20.70;85.30;;;;;;5001981;28;20210;-84
2023/09/24 12:08:37;;;;;;;0.40;0.30;;;20.60;87.80;;;;;;4988420;28;20976;-83
2023/09/24 12:11:03;;;;;;;3.03;1.47;;;;;;;;;;5000857;28;20209;-82
2023/09/24 12:13:30;;;;;;;0.40;0.20;;;20.40;80.40;;;;;;4982535;28;20449;-82
2023/09/24 12:15:55;;;;;;;0.40;0.30;;;20.70;83.20;;;;;;4987967;28;21002;-82
2023/09/24 12:18:21;;;;;;;0.40;0.20;;;20.70;85.50;;;;;;5002720;28;20455;-83
2023/09/24 12:20:47;;;;;;;0.40;0.30;;;20.60;81.60;;;;;;5003999;28;20633;-84
2023/09/24 12:23:13;;;;;;;0.40;0.30;;;20.70;83.70;;;;;;4990298;28;20477;-81
2023/09/24 12:25:40;;;;;;;0.40;0.20;;;20.50;77.70;;;;;;5006394;28;20206;-81
2023/09/24 12:28:08;;;;;;;0.40;0.30;;;20.50;81.00;;;;;;5006112;28;20185;-84
2023/09/24 12:30:34;;;;;;;0.40;0.30;;;20.80;82.30;;;;;;4991894;28;20445;-84
2023/09/24 12:33:00;;;;;;;0.60;0.50;;;;;;;;;;5007710;28;20456;-82
2023/09/24 12:35:26;;;;;;;0.40;0.23;;;21.00;82.50;;;;;;4983541;28;20926;-80
2023/09/24 12:37:54;;;;;;;0.40;0.20;;;;;;;;;;5005581;28;20472;-79
2023/09/24 12:40:22;;;;;;;0.40;0.30;;;21.10;86.60;;;;;;4990157;28;20199;-79
2023/09/24 12:42:48;;;;;;;0.40;0.30;;;21.10;87.40;;;;;;5002798;28;20453;-80
2023/09/24 12:45:16;;;;;;;0.40;0.30;;;21.10;83.70;;;;;;4999803;28;20543;-79
2023/09/24 12:47:41;;;;;;;0.40;0.20;;;21.20;81.40;;;;;;4977665;28;20200;-82
2023/09/24 12:50:10;;;;;;;0.70;0.60;;;21.20;81.60;;;;;;4986417;28;20445;-83
2023/09/24 12:52:38;;;;;;;0.40;0.23;;;21.20;82.40;;;;;;5001088;28;20205;-82
2023/09/24 12:55:06;;;;;;;0.40;0.23;;;21.00;82.00;;;;;;4986509;28;20860;-84
2023/09/24 12:57:32;;;;;;;0.40;0.30;;;;;;;;;;4997957;28;20455;-80
2023/09/24 12:59:58;;;;;;;0.40;0.20;;;20.90;79.70;;;;;;4978872;28;20487;-82
2023/09/24 13:02:24;;;;;;;0.60;0.47;;;21.00;85.90;;;;;;4989239;28;20469;-83
2023/09/24 13:04:50;;;;;;;0.50;0.50;;;21.20;85.10;;;;;;4996973;28;20256;-82
2023/09/24 13:07:15;;;;;;;0.40;0.30;;;21.20;86.30;;;;;;4997876;28;20991;-84
2023/09/24 13:09:41;;;;;;;0.40;0.30;;;21.30;83.90;;;;;;4987472;28;20186;-85
2023/09/24 13:12:07;;;;;;;0.40;0.30;;;21.30;84.30;;;;;;4985989;28;20253;-81
2023/09/24 13:14:34;;;;;;;0.40;0.20;;;21.40;84.30;;;;;;5002881;28;20225;-81